sensor_id;sensor_type;location;lat;lon;timestamp;pressure;altitude;pressure_sealevel;temperature;humidity
29239;BME280;16267;48.194;11.546;2024-03-23T00:55:59;95384.47;;;11.25;71.36
29239;BME280;16267;48.194;11.546;2024-03-23T00:58:25;95379.53;;;11.23;71.64
29239;BME280;16267;48.194;11.546;2024-03-23T01:00:51;95372.38;;;11.16;71.84
29239;BME280;16267;48.194;11.546;2024-03-23T01:03:16;95371.72;;;11.12;70.13
29239;BME280;16267;48.194;11.546;2024-03-23T01:05:42;95369.78;;;11.13;71.86
29239;BME280;16267;48.194;11.546;2024-03-23T01:08:08;95370.22;;;11.11;71.65
29239;BME280;16267;48.194;11.546;2024-03-23T01:10:33;95366.34;;;11.12;71.36
29239;BME280;16267;48.194;11.546;2024-03-23T01:12:59;95362.66;;;11.06;70.49
29239;BME280;16267;48.194;11.546;2024-03-23T01:15:25;95357.59;;;11.08;70.58
29239;BME280;16267;48.194;11.546;2024-03-23T01:17:50;95360.72;;;11.07;70.69
29239;BME280;16267;48.194;11.546;2024-03-23T01:20:16;95356.59;;;11.02;70.50
29239;BME280;16267;48.194;11.546;2024-03-23T01:22:42;95347.38;;;11.03;70.58
29239;BME280;16267;48.194;11.546;2024-03-23T01:25:08;95352.56;;;10.94;69.90
29239;BME280;16267;48.194;11.546;2024-03-23T01:27:34;95348.72;;;10.95;71.35
29239;BME280;16267;48.194;11.546;2024-03-23T01:30:00;95346.09;;;10.91;70.34
29239;BME280;16267;48.194;11.546;2024-03-23T01:32:25;95344.72;;;10.83;69.60
29239;BME280;16267;48.194;11.546;2024-03-23T01:34:51;95342.66;;;10.91;71.10
29239;BME280;16267;48.194;11.546;2024-03-23T01:37:17;95336.19;;;10.88;70.78
29239;BME280;16267;48.194;11.546;2024-03-23T01:39:43;95339.22;;;10.90;71.39
29239;BME280;16267;48.194;11.546;2024-03-23T01:42:08;95339.72;;;10.85;71.37
29239;BME280;16267;48.194;11.546;2024-03-23T01:44:34;95330.56;;;10.83;71.48
29239;BME280;16267;48.194;11.546;2024-03-23T01:47:00;95327.69;;;10.74;71.43
29239;BME280;16267;48.194;11.546;2024-03-23T01:49:26;95328.72;;;10.80;71.80
29239;BME280;16267;48.194;11.546;2024-03-23T01:51:51;95327.59;;;10.77;72.10
29239;BME280;16267;48.194;11.546;2024-03-23T01:54:17;95326.59;;;10.71;71.42
29239;BME280;16267;48.194;11.546;2024-03-23T01:56:44;95322.81;;;10.68;70.77
29239;BME280;16267;48.194;11.546;2024-03-23T01:59:09;95317.03;;;10.70;70.80
29239;BME280;16267;48.194;11.546;2024-03-23T02:01:35;95316.22;;;10.73;71.52
29239;BME280;16267;48.194;11.546;2024-03-23T02:04:01;95307.91;;;10.67;70.14
29239;BME280;16267;48.194;11.546;2024-03-23T02:06:28;95309.56;;;10.78;71.08
29239;BME280;16267;48.194;11.546;2024-03-23T02:08:55;95309.31;;;10.72;70.05
29239;BME280;16267;48.194;11.546;2024-03-23T02:11:20;95305.47;;;10.73;70.65
29239;BME280;16267;48.194;11.546;2024-03-23T02:13:46;95298.16;;;10.74;71.21
29239;BME280;16267;48.194;11.546;2024-03-23T02:16:12;95298.56;;;10.72;70.87
29239;BME280;16267;48.194;11.546;2024-03-23T02:18:41;95296.16;;;10.78;70.96
29239;BME280;16267;48.194;11.546;2024-03-23T02:21:06;95299.00;;;10.70;71.01
29239;BME280;16267;48.194;11.546;2024-03-23T02:23:32;95288.53;;;10.76;71.36
29239;BME280;16267;48.194;11.546;2024-03-23T02:25:58;95288.28;;;10.70;71.10
29239;BME280;16267;48.194;11.546;2024-03-23T02:28:24;95287.84;;;10.72;71.62
29239;BME280;16267;48.194;11.546;2024-03-23T02:30:50;95285.72;;;10.63;71.45
29239;BME280;16267;48.194;11.546;2024-03-23T02:33:16;95274.66;;;10.61;71.13
29239;BME280;16267;48.194;11.546;2024-03-23T02:35:43;95281.06;;;10.67;71.89
29239;BME280;16267;48.194;11.546;2024-03-23T02:38:09;95267.69;;;10.64;71.73
29239;BME280;16267;48.194;11.546;2024-03-23T02:40:35;95266.84;;;10.51;72.67
29239;BME280;16267;48.194;11.546;2024-03-23T02:43:03;95259.97;;;10.49;72.77
29239;BME280;16267;48.194;11.546;2024-03-23T02:45:30;95263.84;;;10.48;72.58
29239;BME280;16267;48.194;11.546;2024-03-23T02:47:56;95260.06;;;10.46;73.32
29239;BME280;16267;48.194;11.546;2024-03-23T02:50:22;95257.72;;;10.48;73.40
29239;BME280;16267;48.194;11.546;2024-03-23T02:52:48;95259.22;;;10.49;73.43
29239;BME280;16267;48.194;11.546;2024-03-23T02:55:14;95252.25;;;10.52;73.78
29239;BME280;16267;48.194;11.546;2024-03-23T02:57:40;95256.03;;;10.54;73.17
29239;BME280;16267;48.194;11.546;2024-03-23T03:00:07;95252.59;;;10.54;73.17
29239;BME280;16267;48.194;11.546;2024-03-23T03:02:33;95252.25;;;10.52;73.09
29239;BME280;16267;48.194;11.546;2024-03-23T03:04:59;95249.56;;;10.52;74.23
29239;BME280;16267;48.194;11.546;2024-03-23T03:07:26;95244.56;;;10.54;74.00
29239;BME280;16267;48.194;11.546;2024-03-23T03:09:52;95244.72;;;10.46;74.39
29239;BME280;16267;48.194;11.546;2024-03-23T03:12:17;95244.78;;;10.43;74.23
29239;BME280;16267;48.194;11.546;2024-03-23T03:14:43;95241.75;;;10.41;74.40
29239;BME280;16267;48.194;11.546;2024-03-23T03:17:09;95235.22;;;10.42;75.04
29239;BME280;16267;48.194;11.546;2024-03-23T03:19:35;95236.00;;;10.42;74.72
29239;BME280;16267;48.194;11.546;2024-03-23T03:22:01;95231.03;;;10.41;75.48
29239;BME280;16267;48.194;11.546;2024-03-23T03:24:26;95231.38;;;10.43;75.17
29239;BME280;16267;48.194;11.546;2024-03-23T03:26:52;95233.97;;;10.46;75.15
29239;BME280;16267;48.194;11.546;2024-03-23T03:29:18;95228.69;;;10.43;75.63
29239;BME280;16267;48.194;11.546;2024-03-23T03:31:44;95224.16;;;10.40;75.53
29239;BME280;16267;48.194;11.546;2024-03-23T03:34:10;95219.63;;;10.37;76.15
29239;BME280;16267;48.194;11.546;2024-03-23T03:36:35;95224.44;;;10.45;75.46
29239;BME280;16267;48.194;11.546;2024-03-23T03:39:01;95214.19;;;10.40;76.15
29239;BME280;16267;48.194;11.546;2024-03-23T03:41:29;95210.56;;;10.31;76.62
29239;BME280;16267;48.194;11.546;2024-03-23T03:43:54;95211.66;;;10.33;76.59
29239;BME280;16267;48.194;11.546;2024-03-23T03:46:20;95194.81;;;10.33;76.58
29239;BME280;16267;48.194;11.546;2024-03-23T03:48:46;95207.81;;;10.34;76.97
29239;BME280;16267;48.194;11.546;2024-03-23T03:51:14;95205.53;;;10.33;76.79
29239;BME280;16267;48.194;11.546;2024-03-23T03:53:39;95204.09;;;10.28;77.39
29239;BME280;16267;48.194;11.546;2024-03-23T03:56:05;95192.97;;;10.30;77.67
29239;BME280;16267;48.194;11.546;2024-03-23T03:58:33;95196.16;;;10.41;77.59
29239;BME280;16267;48.194;11.546;2024-03-23T04:00:59;95191.47;;;10.29;78.07
29239;BME280;16267;48.194;11.546;2024-03-23T04:03:24;95183.19;;;10.39;77.56
29239;BME280;16267;48.194;11.546;2024-03-23T04:05:54;95173.50;;;10.42;77.48
29239;BME280;16267;48.194;11.546;2024-03-23T04:08:20;95179.47;;;10.33;78.20
29239;BME280;16267;48.194;11.546;2024-03-23T04:10:46;95177.63;;;10.30;77.23
29239;BME280;16267;48.194;11.546;2024-03-23T04:13:15;95173.50;;;10.42;77.31
29239;BME280;16267;48.194;11.546;2024-03-23T04:15:42;95161.53;;;10.46;77.20
29239;BME280;16267;48.194;11.546;2024-03-23T04:18:07;95157.94;;;10.53;76.61
29239;BME280;16267;48.194;11.546;2024-03-23T04:20:33;95147.47;;;10.59;77.12
29239;BME280;16267;48.194;11.546;2024-03-23T04:22:59;95150.66;;;10.54;76.20
29239;BME280;16267;48.194;11.546;2024-03-23T04:25:25;95140.56;;;10.58;75.86
29239;BME280;16267;48.194;11.546;2024-03-23T04:27:51;95136.72;;;10.59;75.57
29239;BME280;16267;48.194;11.546;2024-03-23T04:30:17;95135.56;;;10.60;75.79
29239;BME280;16267;48.194;11.546;2024-03-23T04:32:43;95137.06;;;10.61;75.71
29239;BME280;16267;48.194;11.546;2024-03-23T04:35:09;95128.94;;;10.64;75.37
29239;BME280;16267;48.194;11.546;2024-03-23T04:37:38;95128.84;;;10.68;75.05
29239;BME280;16267;48.194;11.546;2024-03-23T04:40:07;95125.81;;;10.66;75.01
29239;BME280;16267;48.194;11.546;2024-03-23T04:42:33;95108.56;;;10.67;74.83
29239;BME280;16267;48.194;11.546;2024-03-23T04:45:00;95109.53;;;10.73;75.09
29239;BME280;16267;48.194;11.546;2024-03-23T04:47:26;95106.00;;;10.76;74.74
29239;BME280;16267;48.194;11.546;2024-03-23T04:49:51;95103.00;;;10.74;74.29
29239;BME280;16267;48.194;11.546;2024-03-23T04:52:18;95104.81;;;10.77;74.64
29239;BME280;16267;48.194;11.546;2024-03-23T04:54:44;95101.81;;;10.75;74.67
29239;BME280;16267;48.194;11.546;2024-03-23T04:57:11;95101.41;;;10.77;74.67
29239;BME280;16267;48.194;11.546;2024-03-23T04:59:37;95095.03;;;10.70;73.76
29239;BME280;16267;48.194;11.546;2024-03-23T05:02:02;95086.31;;;10.66;73.56
29239;BME280;16267;48.194;11.546;2024-03-23T05:04:28;95077.34;;;10.73;74.45
29239;BME280;16267;48.194;11.546;2024-03-23T05:06:54;95070.78;;;10.74;74.01
29239;BME280;16267;48.194;11.546;2024-03-23T05:09:20;95076.59;;;10.73;74.09
29239;BME280;16267;48.194;11.546;2024-03-23T05:11:46;95080.69;;;10.77;73.78
29239;BME280;16267;48.194;11.546;2024-03-23T05:14:13;95071.13;;;10.76;72.54
29239;BME280;16267;48.194;11.546;2024-03-23T05:16:39;95073.06;;;10.76;72.84
29239;BME280;16267;48.194;11.546;2024-03-23T05:19:05;95070.44;;;10.72;71.74
29239;BME280;16267;48.194;11.546;2024-03-23T05:21:31;95072.03;;;10.69;71.42
29239;BME280;16267;48.194;11.546;2024-03-23T05:23:57;95068.53;;;10.73;71.75
29239;BME280;16267;48.194;11.546;2024-03-23T05:26:23;95070.13;;;10.70;71.11
29239;BME280;16267;48.194;11.546;2024-03-23T05:28:49;95064.34;;;10.71;71.36
29239;BME280;16267;48.194;11.546;2024-03-23T05:31:30;95071.13;;;10.76;71.88
29239;BME280;16267;48.194;11.546;2024-03-23T05:33:57;95064.41;;;10.84;71.22
29239;BME280;16267;48.194;11.546;2024-03-23T05:36:23;95068.78;;;10.78;71.07
29239;BME280;16267;48.194;11.546;2024-03-23T05:38:51;95060.13;;;10.87;71.35
29239;BME280;16267;48.194;11.546;2024-03-23T05:41:17;95050.88;;;10.88;71.10
29239;BME280;16267;48.194;11.546;2024-03-23T05:43:43;95056.47;;;10.93;70.37
29239;BME280;16267;48.194;11.546;2024-03-23T05:46:08;95052.06;;;10.87;70.08
29239;BME280;16267;48.194;11.546;2024-03-23T05:48:35;95053.22;;;10.86;68.95
29239;BME280;16267;48.194;11.546;2024-03-23T05:51:00;95048.84;;;10.92;68.85
29239;BME280;16267;48.194;11.546;2024-03-23T05:53:26;95049.00;;;11.01;69.77
29239;BME280;16267;48.194;11.546;2024-03-23T05:56:02;95044.81;;;11.00;69.01
29239;BME280;16267;48.194;11.546;2024-03-23T05:58:31;95041.16;;;11.07;69.32
29239;BME280;16267;48.194;11.546;2024-03-23T06:00:58;95038.38;;;11.10;68.70
29239;BME280;16267;48.194;11.546;2024-03-23T06:03:25;95029.69;;;11.19;68.89
29239;BME280;16267;48.194;11.546;2024-03-23T06:05:51;95023.47;;;11.22;68.62
29239;BME280;16267;48.194;11.546;2024-03-23T06:08:19;95021.00;;;11.28;69.04
29239;BME280;16267;48.194;11.546;2024-03-23T06:10:46;95016.19;;;11.35;68.84
29239;BME280;16267;48.194;11.546;2024-03-23T06:13:13;95013.72;;;11.41;68.12
29239;BME280;16267;48.194;11.546;2024-03-23T06:15:39;95013.63;;;11.45;67.88
29239;BME280;16267;48.194;11.546;2024-03-23T06:18:05;94996.00;;;11.56;67.92
29239;BME280;16267;48.194;11.546;2024-03-23T06:20:33;94998.38;;;11.67;67.99
29239;BME280;16267;48.194;11.546;2024-03-23T06:23:03;94992.75;;;11.74;67.53
29239;BME280;16267;48.194;11.546;2024-03-23T06:25:29;94982.44;;;11.86;67.87
29239;BME280;16267;48.194;11.546;2024-03-23T06:27:55;94976.00;;;11.96;67.32
29239;BME280;16267;48.194;11.546;2024-03-23T06:30:21;94978.47;;;12.03;67.13
29239;BME280;16267;48.194;11.546;2024-03-23T06:32:46;94972.41;;;12.12;66.47
29239;BME280;16267;48.194;11.546;2024-03-23T06:35:12;94966.91;;;12.15;65.83
29239;BME280;16267;48.194;11.546;2024-03-23T06:37:38;94958.81;;;12.28;64.56
29239;BME280;16267;48.194;11.546;2024-03-23T06:40:07;94952.31;;;12.38;63.31
29239;BME280;16267;48.194;11.546;2024-03-23T06:42:36;94949.06;;;12.43;61.32
29239;BME280;16267;48.194;11.546;2024-03-23T06:45:02;94941.69;;;12.57;61.95
29239;BME280;16267;48.194;11.546;2024-03-23T06:47:30;94929.25;;;12.72;61.66
29239;BME280;16267;48.194;11.546;2024-03-23T06:49:56;94941.88;;;12.84;61.04
29239;BME280;16267;48.194;11.546;2024-03-23T06:52:22;94937.91;;;12.98;61.81
29239;BME280;16267;48.194;11.546;2024-03-23T06:54:47;94931.25;;;13.12;61.69
29239;BME280;16267;48.194;11.546;2024-03-23T06:57:13;94929.34;;;13.22;60.15
29239;BME280;16267;48.194;11.546;2024-03-23T06:59:39;94933.19;;;13.33;60.15
29239;BME280;16267;48.194;11.546;2024-03-23T07:02:05;94931.56;;;13.45;59.14
29239;BME280;16267;48.194;11.546;2024-03-23T07:04:34;94928.63;;;13.61;60.38
29239;BME280;16267;48.194;11.546;2024-03-23T07:07:00;94923.88;;;13.75;60.54
29239;BME280;16267;48.194;11.546;2024-03-23T07:09:28;94916.69;;;13.90;58.36
29239;BME280;16267;48.194;11.546;2024-03-23T07:11:56;94925.13;;;14.11;58.92
29239;BME280;16267;48.194;11.546;2024-03-23T07:14:23;94938.16;;;14.12;57.65
29239;BME280;16267;48.194;11.546;2024-03-23T07:16:49;94930.69;;;14.25;59.85
29239;BME280;16267;48.194;11.546;2024-03-23T07:19:18;94921.84;;;14.25;58.04
29239;BME280;16267;48.194;11.546;2024-03-23T07:21:44;94927.41;;;14.31;59.85
29239;BME280;16267;48.194;11.546;2024-03-23T07:24:11;94919.88;;;14.35;59.07
29239;BME280;16267;48.194;11.546;2024-03-23T07:26:37;94925.59;;;14.37;60.37
29239;BME280;16267;48.194;11.546;2024-03-23T07:29:06;94935.78;;;14.33;59.63
29239;BME280;16267;48.194;11.546;2024-03-23T07:31:32;94945.97;;;14.38;61.01
29239;BME280;16267;48.194;11.546;2024-03-23T07:33:58;94964.44;;;14.30;61.49
29239;BME280;16267;48.194;11.546;2024-03-23T07:36:24;94970.69;;;14.18;62.92
29239;BME280;16267;48.194;11.546;2024-03-23T07:38:51;95006.50;;;14.09;67.49
29239;BME280;16267;48.194;11.546;2024-03-23T07:41:18;95029.69;;;13.88;74.60
29239;BME280;16267;48.194;11.546;2024-03-23T07:43:46;95056.47;;;13.51;80.14
29239;BME280;16267;48.194;11.546;2024-03-23T07:46:12;95051.72;;;13.11;82.62
29239;BME280;16267;48.194;11.546;2024-03-23T07:48:39;95051.22;;;12.82;83.93
29239;BME280;16267;48.194;11.546;2024-03-23T07:51:21;95030.28;;;12.64;86.47
29239;BME280;16267;48.194;11.546;2024-03-23T07:53:47;95045.19;;;12.43;87.96
29239;BME280;16267;48.194;11.546;2024-03-23T07:56:16;95052.66;;;12.13;89.59
29239;BME280;16267;48.194;11.546;2024-03-23T07:58:43;95055.56;;;12.19;93.70
29239;BME280;16267;48.194;11.546;2024-03-23T08:01:15;95061.41;;;11.92;98.02
29239;BME280;16267;48.194;11.546;2024-03-23T08:03:44;95077.31;;;11.86;99.21
29239;BME280;16267;48.194;11.546;2024-03-23T08:06:15;95092.94;;;11.49;100.00
29239;BME280;16267;48.194;11.546;2024-03-23T08:08:42;95087.78;;;11.55;100.00
29239;BME280;16267;48.194;11.546;2024-03-23T08:11:08;95111.53;;;11.44;100.00
29239;BME280;16267;48.194;11.546;2024-03-23T08:13:35;95111.66;;;11.53;100.00
29239;BME280;16267;48.194;11.546;2024-03-23T08:16:02;95115.28;;;11.46;100.00
29239;BME280;16267;48.194;11.546;2024-03-23T08:18:29;95121.41;;;11.34;100.00
29239;BME280;16267;48.194;11.546;2024-03-23T08:21:07;95131.19;;;11.11;100.00
29239;BME280;16267;48.194;11.546;2024-03-23T08:23:35;95181.66;;;11.33;100.00
29239;BME280;16267;48.194;11.546;2024-03-23T08:26:07;95217.81;;;10.83;100.00
29239;BME280;16267;48.194;11.546;2024-03-23T08:28:34;95213.88;;;10.87;100.00
29239;BME280;16267;48.194;11.546;2024-03-23T08:31:09;95201.53;;;10.90;100.00
29239;BME280;16267;48.194;11.546;2024-03-23T08:33:35;95210.94;;;10.82;100.00
29239;BME280;16267;48.194;11.546;2024-03-23T08:36:17;95208.25;;;10.65;100.00
29239;BME280;16267;48.194;11.546;2024-03-23T08:38:59;95222.09;;;10.80;100.00
29239;BME280;16267;48.194;11.546;2024-03-23T08:42:02;95217.16;;;10.79;100.00
29239;BME280;16267;48.194;11.546;2024-03-23T08:47:11;95218.06;;;10.72;100.00
29239;BME280;16267;48.194;11.546;2024-03-23T08:49:39;95216.41;;;10.78;100.00
29239;BME280;16267;48.194;11.546;2024-03-23T08:52:05;95221.59;;;10.85;100.00
29239;BME280;16267;48.194;11.546;2024-03-23T08:54:39;95222.69;;;10.71;100.00
29239;BME280;16267;48.194;11.546;2024-03-23T08:57:05;95224.13;;;10.76;100.00
29239;BME280;16267;48.194;11.546;2024-03-23T09:02:00;95247.50;;;10.59;100.00
29239;BME280;16267;48.194;11.546;2024-03-23T09:04:26;95254.59;;;10.49;100.00
29239;BME280;16267;48.194;11.546;2024-03-23T09:06:52;95263.84;;;10.48;100.00
29239;BME280;16267;48.194;11.546;2024-03-23T09:09:18;95270.53;;;10.40;100.00
29239;BME280;16267;48.194;11.546;2024-03-23T09:11:45;95273.94;;;10.41;100.00
29239;BME280;16267;48.194;11.546;2024-03-23T09:14:11;95270.88;;;10.42;100.00
29239;BME280;16267;48.194;11.546;2024-03-23T09:16:36;95269.16;;;10.32;100.00
29239;BME280;16267;48.194;11.546;2024-03-23T09:19:02;95273.06;;;10.47;100.00
29239;BME280;16267;48.194;11.546;2024-03-23T09:21:28;95270.91;;;10.39;100.00
29239;BME280;16267;48.194;11.546;2024-03-23T09:23:54;95271.28;;;10.41;100.00
29239;BME280;16267;48.194;11.546;2024-03-23T09:26:20;95278.84;;;10.26;100.00
29239;BME280;16267;48.194;11.546;2024-03-23T09:28:49;95289.22;;;10.24;100.00
29239;BME280;16267;48.194;11.546;2024-03-23T09:31:14;95274.22;;;10.26;100.00
29239;BME280;16267;48.194;11.546;2024-03-23T09:33:41;95285.09;;;9.99;100.00
29239;BME280;16267;48.194;11.546;2024-03-23T09:36:08;95271.16;;;9.88;100.00
29239;BME280;16267;48.194;11.546;2024-03-23T09:38:34;95268.03;;;9.70;100.00
29239;BME280;16267;48.194;11.546;2024-03-23T09:41:00;95278.44;;;9.68;100.00
29239;BME280;16267;48.194;11.546;2024-03-23T09:43:26;95276.06;;;9.70;100.00
29239;BME280;16267;48.194;11.546;2024-03-23T09:45:52;95284.59;;;9.65;100.00
29239;BME280;16267;48.194;11.546;2024-03-23T09:48:19;95298.94;;;9.54;100.00
29239;BME280;16267;48.194;11.546;2024-03-23T09:50:45;95304.72;;;9.29;100.00
29239;BME280;16267;48.194;11.546;2024-03-23T09:53:13;95314.22;;;9.34;100.00
29239;BME280;16267;48.194;11.546;2024-03-23T09:55:42;95310.72;;;9.37;100.00
29239;BME280;16267;48.194;11.546;2024-03-23T09:58:08;95315.41;;;9.06;100.00
29239;BME280;16267;48.194;11.546;2024-03-23T10:00:38;95328.34;;;8.84;100.00
29239;BME280;16267;48.194;11.546;2024-03-23T10:03:04;95331.56;;;8.71;100.00
29239;BME280;16267;48.194;11.546;2024-03-23T10:05:32;95348.88;;;8.63;100.00
29239;BME280;16267;48.194;11.546;2024-03-23T10:08:18;95335.94;;;8.58;100.00
29239;BME280;16267;48.194;11.546;2024-03-23T10:10:47;95345.66;;;8.45;100.00
29239;BME280;16267;48.194;11.546;2024-03-23T10:13:25;95342.91;;;8.52;100.00
29239;BME280;16267;48.194;11.546;2024-03-23T10:15:56;95340.00;;;8.05;100.00
29239;BME280;16267;48.194;11.546;2024-03-23T10:18:23;95347.34;;;8.32;100.00
29239;BME280;16267;48.194;11.546;2024-03-23T10:23:33;95338.88;;;8.40;100.00
29239;BME280;16267;48.194;11.546;2024-03-23T10:26:22;95348.09;;;8.32;100.00
29239;BME280;16267;48.194;11.546;2024-03-23T10:28:52;95346.22;;;8.29;100.00
29239;BME280;16267;48.194;11.546;2024-03-23T10:31:19;95337.03;;;8.30;100.00
29239;BME280;16267;48.194;11.546;2024-03-23T10:33:46;95339.50;;;8.52;100.00
29239;BME280;16267;48.194;11.546;2024-03-23T10:36:13;95346.34;;;8.53;100.00
29239;BME280;16267;48.194;11.546;2024-03-23T10:38:41;95344.22;;;8.40;100.00
29239;BME280;16267;48.194;11.546;2024-03-23T10:41:09;95345.91;;;8.58;100.00
29239;BME280;16267;48.194;11.546;2024-03-23T10:43:38;95357.28;;;8.65;100.00
29239;BME280;16267;48.194;11.546;2024-03-23T10:46:05;95363.63;;;8.75;100.00
29239;BME280;16267;48.194;11.546;2024-03-23T10:48:32;95355.97;;;8.77;100.00
29239;BME280;16267;48.194;11.546;2024-03-23T10:50:58;95370.84;;;8.78;100.00
29239;BME280;16267;48.194;11.546;2024-03-23T10:53:27;95377.59;;;8.90;100.00
29239;BME280;16267;48.194;11.546;2024-03-23T10:55:55;95385.97;;;8.92;100.00
29239;BME280;16267;48.194;11.546;2024-03-23T10:58:36;95391.63;;;8.98;100.00
29239;BME280;16267;48.194;11.546;2024-03-23T11:01:03;95398.88;;;8.97;100.00
29239;BME280;16267;48.194;11.546;2024-03-23T11:03:34;95397.56;;;8.82;100.00
29239;BME280;16267;48.194;11.546;2024-03-23T11:06:05;95415.09;;;8.86;100.00
29239;BME280;16267;48.194;11.546;2024-03-23T11:08:39;95421.59;;;8.85;100.00
29239;BME280;16267;48.194;11.546;2024-03-23T11:11:21;95427.13;;;8.71;100.00
29239;BME280;16267;48.194;11.546;2024-03-23T11:13:53;95424.38;;;8.78;100.00
29239;BME280;16267;48.194;11.546;2024-03-23T11:16:28;95437.16;;;8.63;100.00
29239;BME280;16267;48.194;11.546;2024-03-23T11:19:36;95441.59;;;8.77;100.00
29239;BME280;16267;48.194;11.546;2024-03-23T11:22:03;95448.28;;;8.58;100.00
29239;BME280;16267;48.194;11.546;2024-03-23T11:24:30;95429.66;;;8.51;100.00
29239;BME280;16267;48.194;11.546;2024-03-23T11:26:56;95427.66;;;8.59;100.00
29239;BME280;16267;48.194;11.546;2024-03-23T11:29:26;95412.22;;;8.74;100.00
29239;BME280;16267;48.194;11.546;2024-03-23T11:31:53;95387.69;;;8.79;100.00
29239;BME280;16267;48.194;11.546;2024-03-23T11:34:20;95408.59;;;8.87;100.00
29239;BME280;16267;48.194;11.546;2024-03-23T11:36:46;95428.81;;;8.58;98.23
29239;BME280;16267;48.194;11.546;2024-03-23T11:39:17;95426.41;;;8.67;97.79
29239;BME280;16267;48.194;11.546;2024-03-23T11:41:56;95438.47;;;8.82;98.35
29239;BME280;16267;48.194;11.546;2024-03-23T11:44:26;95419.06;;;8.75;93.14
29239;BME280;16267;48.194;11.546;2024-03-23T11:46:52;95417.50;;;8.77;95.05
29239;BME280;16267;48.194;11.546;2024-03-23T11:49:27;95433.13;;;8.82;92.94
29239;BME280;16267;48.194;11.546;2024-03-23T11:51:55;95438.91;;;8.77;90.43
29239;BME280;16267;48.194;11.546;2024-03-23T11:54:26;95430.25;;;8.97;94.67
29239;BME280;16267;48.194;11.546;2024-03-23T11:57:01;95397.69;;;9.02;91.08
29239;BME280;16267;48.194;11.546;2024-03-23T11:59:42;95390.72;;;9.08;92.03
29239;BME280;16267;48.194;11.546;2024-03-23T12:02:11;95405.56;;;9.12;90.90
29239;BME280;16267;48.194;11.546;2024-03-23T12:04:38;95411.69;;;9.13;88.17
29239;BME280;16267;48.194;11.546;2024-03-23T12:07:20;95414.03;;;8.80;86.02
29239;BME280;16267;48.194;11.546;2024-03-23T12:10:07;95410.34;;;8.98;86.80
29239;BME280;16267;48.194;11.546;2024-03-23T12:12:34;95415.13;;;8.83;80.05
29239;BME280;16267;48.194;11.546;2024-03-23T12:15:07;95418.44;;;8.94;79.92
29239;BME280;16267;48.194;11.546;2024-03-23T12:17:34;95410.25;;;9.05;79.24
29239;BME280;16267;48.194;11.546;2024-03-23T12:20:01;95405.53;;;9.16;80.56
29239;BME280;16267;48.194;11.546;2024-03-23T12:22:27;95408.28;;;9.09;79.00
29239;BME280;16267;48.194;11.546;2024-03-23T12:24:55;95406.78;;;9.08;77.40
29239;BME280;16267;48.194;11.546;2024-03-23T12:27:21;95410.13;;;9.15;76.67
29239;BME280;16267;48.194;11.546;2024-03-23T12:29:46;95418.44;;;8.94;72.31
29239;BME280;16267;48.194;11.546;2024-03-23T12:32:13;95410.47;;;8.90;74.57
29239;BME280;16267;48.194;11.546;2024-03-23T12:34:40;95398.44;;;9.02;74.71
29239;BME280;16267;48.194;11.546;2024-03-23T12:37:06;95396.19;;;9.01;72.27
29239;BME280;16267;48.194;11.546;2024-03-23T12:39:32;95411.38;;;9.07;74.34
29239;BME280;16267;48.194;11.546;2024-03-23T12:41:58;95409.59;;;8.97;70.85
29239;BME280;16267;48.194;11.546;2024-03-23T12:44:24;95408.16;;;8.92;69.94
29239;BME280;16267;48.194;11.546;2024-03-23T12:46:49;95405.91;;;8.87;69.45
29239;BME280;16267;48.194;11.546;2024-03-23T12:49:15;95411.38;;;9.07;73.56
29239;BME280;16267;48.194;11.546;2024-03-23T12:51:53;95393.59;;;9.21;75.14
29239;BME280;16267;48.194;11.546;2024-03-23T12:54:20;95393.91;;;9.26;72.64
29239;BME280;16267;48.194;11.546;2024-03-23T12:56:46;95392.97;;;9.36;74.97
29239;BME280;16267;48.194;11.546;2024-03-23T12:59:12;95400.22;;;9.40;72.76
29239;BME280;16267;48.194;11.546;2024-03-23T13:01:39;95395.63;;;9.40;71.85
29239;BME280;16267;48.194;11.546;2024-03-23T13:04:05;95401.56;;;9.51;73.83
29239;BME280;16267;48.194;11.546;2024-03-23T13:06:30;95398.88;;;9.51;71.92
29239;BME280;16267;48.194;11.546;2024-03-23T13:09:03;95399.00;;;9.68;73.28
29239;BME280;16267;48.194;11.546;2024-03-23T13:11:30;95398.88;;;9.75;72.64
29239;BME280;16267;48.194;11.546;2024-03-23T13:13:56;95403.84;;;9.76;71.94
29239;BME280;16267;48.194;11.546;2024-03-23T13:16:21;95406.53;;;9.76;70.88
29239;BME280;16267;48.194;11.546;2024-03-23T13:18:47;95403.63;;;9.67;69.59
29239;BME280;16267;48.194;11.546;2024-03-23T13:21:13;95390.09;;;9.74;72.14
29239;BME280;16267;48.194;11.546;2024-03-23T13:23:39;95381.56;;;9.79;72.76
29239;BME280;16267;48.194;11.546;2024-03-23T13:26:08;95373.59;;;9.76;72.01
29239;BME280;16267;48.194;11.546;2024-03-23T13:28:33;95368.00;;;9.67;73.44
29239;BME280;16267;48.194;11.546;2024-03-23T13:31:01;95363.75;;;9.69;70.82
29239;BME280;16267;48.194;11.546;2024-03-23T13:33:30;95366.78;;;9.71;72.16
29239;BME280;16267;48.194;11.546;2024-03-23T13:35:58;95372.03;;;9.55;68.59
29239;BME280;16267;48.194;11.546;2024-03-23T13:38:24;95379.56;;;9.36;68.43
29239;BME280;16267;48.194;11.546;2024-03-23T13:41:00;95382.94;;;9.17;68.99
29239;BME280;16267;48.194;11.546;2024-03-23T13:43:27;95386.72;;;9.20;70.71
29239;BME280;16267;48.194;11.546;2024-03-23T13:45:58;95379.53;;;8.86;75.58
29239;BME280;16267;48.194;11.546;2024-03-23T13:48:26;95397.84;;;8.60;77.15
29239;BME280;16267;48.194;11.546;2024-03-23T13:51:05;95413.31;;;8.45;79.61
29239;BME280;16267;48.194;11.546;2024-03-23T13:53:31;95443.19;;;8.33;86.06
29239;BME280;16267;48.194;11.546;2024-03-23T13:56:00;95454.59;;;7.99;87.28